Time;durP1;ratioP1;P1;durP2;ratioP2;P2;SDS_P1;SDS_P2;PMS_P1;PMS_P2;Temp;Humidity;BMP_temperature;BMP_pressure;BME280_temperature;BME280_humidity;BME280_pressure;Samples;Min_cycle;Max_cycle;Signal;HPM_P1;HPM_P2
2021/01/09 00:01:19;;;;;;;54.38;41.05;;;17.20;99.90;;;;;;5125747;28;20031;-34
2021/01/09 00:03:44;;;;;;;58.83;41.80;;;17.20;99.90;;;;;;5123026;28;20106;-35
2021/01/09 00:06:10;;;;;;;49.05;38.65;;;17.20;99.90;;;;;;5131602;27;20098;-34
2021/01/09 00:08:37;;;;;;;54.80;40.15;;;17.10;99.90;;;;;;5133307;27;20027;-35
2021/01/09 00:11:03;;;;;;;56.30;40.40;;;17.10;99.90;;;;;;5128508;27;20087;-35
2021/01/09 00:13:29;;;;;;;50.17;40.58;;;17.00;99.90;;;;;;5129422;27;20381;-35
2021/01/09 00:15:54;;;;;;;51.17;40.65;;;17.00;99.90;;;;;;5129632;27;20497;-34
2021/01/09 00:18:20;;;;;;;55.45;40.35;;;17.10;99.90;;;;;;5129873;27;20103;-35
2021/01/09 00:20:46;;;;;;;57.78;42.80;;;17.00;99.90;;;;;;5132800;27;20025;-34
2021/01/09 00:23:12;;;;;;;53.78;40.05;;;17.00;99.90;;;;;;5136275;27;20023;-35
2021/01/09 00:25:38;;;;;;;50.38;40.63;;;16.90;99.90;;;;;;5129521;27;20023;-34
2021/01/09 00:28:04;;;;;;;54.08;40.70;;;16.90;99.90;;;;;;5136043;27;20023;-34
2021/01/09 00:30:30;;;;;;;54.90;40.88;;;16.90;99.90;;;;;;5123152;27;20107;-36
2021/01/09 00:32:55;;;;;;;53.28;39.97;;;16.90;99.90;;;;;;5134392;27;20106;-35
2021/01/09 00:35:21;;;;;;;58.38;40.35;;;16.80;99.90;;;;;;5131464;27;20035;-35
2021/01/09 00:37:47;;;;;;;51.03;38.20;;;16.80;99.90;;;;;;5133362;27;20022;-35
2021/01/09 00:40:13;;;;;;;51.38;38.55;;;16.80;99.90;;;;;;5131048;27;20105;-35
2021/01/09 00:42:41;;;;;;;48.92;37.22;;;16.80;99.90;;;;;;5131852;27;20019;-35
2021/01/09 00:45:08;;;;;;;50.13;39.50;;;16.80;99.90;;;;;;5133438;27;20023;-34
2021/01/09 00:47:34;;;;;;;49.38;36.97;;;16.80;99.90;;;;;;5130867;27;20045;-34
2021/01/09 00:50:00;;;;;;;50.47;40.35;;;16.80;99.90;;;;;;5131717;27;20027;-34
2021/01/09 00:52:26;;;;;;;46.50;37.03;;;16.80;99.90;;;;;;5134313;27;20487;-34
2021/01/09 00:54:52;;;;;;;49.30;38.40;;;16.70;99.90;;;;;;5108903;27;20035;-34
2021/01/09 00:57:18;;;;;;;44.35;37.25;;;16.80;99.90;;;;;;5134684;27;20021;-34
2021/01/09 00:59:44;;;;;;;49.47;38.40;;;16.70;99.90;;;;;;5128173;27;20019;-35
2021/01/09 01:02:10;;;;;;;47.22;35.38;;;16.70;99.90;;;;;;5134818;27;20019;-35
2021/01/09 01:04:36;;;;;;;47.13;36.88;;;16.70;99.90;;;;;;5128921;27;20421;-35
2021/01/09 01:07:02;;;;;;;53.90;36.17;;;16.80;99.90;;;;;;5133123;27;20023;-35
2021/01/09 01:09:28;;;;;;;48.92;33.78;;;16.80;99.90;;;;;;5130374;27;20031;-35
2021/01/09 01:11:53;;;;;;;40.88;29.50;;;16.80;99.90;;;;;;5130266;27;20023;-35
2021/01/09 01:14:20;;;;;;;41.28;29.95;;;16.70;99.90;;;;;;5128327;27;20023;-35
2021/01/09 01:16:50;;;;;;;36.45;28.50;;;16.70;99.90;;;;;;5129859;27;20034;-35
2021/01/09 01:19:15;;;;;;;37.45;27.98;;;16.60;99.90;;;;;;5126258;27;20389;-35
2021/01/09 01:21:41;;;;;;;38.40;26.65;;;16.60;99.90;;;;;;5129980;27;20028;-35
2021/01/09 01:24:07;;;;;;;32.20;24.33;;;16.60;99.90;;;;;;5133967;27;20144;-34
2021/01/09 01:26:34;;;;;;;31.48;24.95;;;16.70;99.90;;;;;;5133412;27;20107;-34
2021/01/09 01:29:00;;;;;;;32.60;23.77;;;16.70;99.90;;;;;;5127251;27;20477;-34
2021/01/09 01:31:27;;;;;;;32.80;24.25;;;16.70;99.90;;;;;;5129314;27;20034;-34
2021/01/09 01:33:52;;;;;;;32.03;21.92;;;16.70;99.90;;;;;;5113742;27;20028;-35
2021/01/09 01:36:19;;;;;;;30.50;22.92;;;16.60;99.90;;;;;;5132588;27;20028;-35
2021/01/09 01:38:44;;;;;;;36.17;21.58;;;16.70;99.90;;;;;;5128643;27;20019;-35
2021/01/09 01:41:10;;;;;;;30.88;19.70;;;16.70;99.90;;;;;;5114370;27;20556;-35
2021/01/09 01:43:38;;;;;;;26.42;19.98;;;16.70;99.90;;;;;;5124531;27;20031;-35
2021/01/09 01:46:06;;;;;;;31.38;19.15;;;16.60;99.90;;;;;;5126559;27;20080;-35
2021/01/09 01:48:32;;;;;;;27.23;18.42;;;16.60;99.90;;;;;;5135307;27;20055;-35
2021/01/09 01:50:58;;;;;;;29.33;19.75;;;16.50;99.90;;;;;;5128157;27;20094;-35
2021/01/09 01:53:27;;;;;;;31.75;17.38;;;16.60;99.90;;;;;;5131251;27;20027;-35
2021/01/09 01:55:54;;;;;;;27.45;16.13;;;16.50;99.90;;;;;;5126552;27;20076;-36
2021/01/09 01:58:20;;;;;;;21.55;14.95;;;16.60;99.90;;;;;;5127901;27;20015;-35
2021/01/09 02:00:47;;;;;;;23.25;15.98;;;16.50;99.90;;;;;;5134321;27;20054;-35
2021/01/09 02:03:16;;;;;;;23.50;14.57;;;16.50;99.90;;;;;;5128121;27;20031;-35
2021/01/09 02:05:57;;;;;;;20.30;14.88;;;16.50;99.90;;;;;;5125121;27;20027;-35
2021/01/09 02:08:29;;;;;;;24.40;14.65;;;16.50;99.90;;;;;;5129805;27;20065;-35
2021/01/09 02:10:59;;;;;;;18.15;13.68;;;16.50;99.90;;;;;;5128044;27;20066;-35
2021/01/09 02:13:31;;;;;;;19.27;12.88;;;16.50;99.90;;;;;;5124007;27;20486;-35
2021/01/09 02:15:58;;;;;;;16.67;11.80;;;16.50;99.90;;;;;;5119709;27;20652;-35
2021/01/09 02:18:25;;;;;;;15.77;12.40;;;16.50;99.90;;;;;;5131165;27;20048;-35
2021/01/09 02:20:59;;;;;;;17.55;11.45;;;16.50;99.90;;;;;;5131637;27;20023;-35
2021/01/09 02:23:25;;;;;;;18.10;11.07;;;16.50;99.90;;;;;;5128188;27;20035;-35
2021/01/09 02:25:51;;;;;;;13.75;10.90;;;16.50;99.90;;;;;;5133284;27;20027;-35
2021/01/09 02:28:17;;;;;;;13.63;10.77;;;16.50;99.90;;;;;;5128918;27;20056;-35
2021/01/09 02:30:47;;;;;;;12.80;9.93;;;16.50;99.90;;;;;;5132258;27;20110;-35
2021/01/09 02:33:14;;;;;;;12.77;9.63;;;16.50;99.90;;;;;;5132376;27;20043;-35
2021/01/09 02:35:40;;;;;;;13.48;9.00;;;16.50;99.90;;;;;;5133307;27;20781;-35
2021/01/09 02:38:06;;;;;;;12.35;9.10;;;16.50;99.90;;;;;;5130728;27;20118;-35
2021/01/09 02:40:42;;;;;;;12.43;8.98;;;16.50;99.90;;;;;;5130618;27;20038;-35
2021/01/09 02:43:14;;;;;;;14.75;8.75;;;16.50;99.90;;;;;;5130282;27;20118;-36
2021/01/09 02:45:40;;;;;;;14.95;9.30;;;16.50;99.90;;;;;;5128099;27;20617;-34
2021/01/09 02:48:07;;;;;;;15.10;8.43;;;16.40;99.90;;;;;;5130276;27;20028;-34
2021/01/09 02:50:33;;;;;;;9.60;7.97;;;16.40;99.90;;;;;;5131438;27;20019;-34
2021/01/09 02:53:00;;;;;;;10.38;8.25;;;16.50;99.90;;;;;;5131301;27;20303;-34
2021/01/09 02:55:26;;;;;;;11.82;9.15;;;16.50;99.90;;;;;;5109166;27;20461;-34
2021/01/09 02:57:51;;;;;;;10.85;7.93;;;16.50;99.90;;;;;;5132757;27;20072;-34
2021/01/09 03:00:19;;;;;;;13.55;8.82;;;16.50;99.90;;;;;;5128272;27;20111;-34
2021/01/09 03:02:45;;;;;;;13.30;9.10;;;16.50;99.90;;;;;;5131959;27;20026;-34
2021/01/09 03:05:11;;;;;;;11.27;8.13;;;16.40;99.90;;;;;;5131569;27;20027;-34
2021/01/09 03:07:37;;;;;;;12.15;8.63;;;16.40;99.90;;;;;;5130891;27;20079;-35
2021/01/09 03:10:03;;;;;;;10.70;8.02;;;16.40;99.90;;;;;;5132497;27;20038;-36
2021/01/09 03:12:29;;;;;;;11.82;8.80;;;16.40;99.90;;;;;;5131197;27;20027;-35
2021/01/09 03:14:55;;;;;;;10.23;8.10;;;16.40;99.90;;;;;;5125342;27;20035;-34
2021/01/09 03:17:20;;;;;;;9.85;7.80;;;16.40;99.90;;;;;;5127306;27;20040;-34
2021/01/09 03:19:46;;;;;;;9.80;7.60;;;16.40;99.90;;;;;;5132345;27;20107;-34
2021/01/09 03:22:12;;;;;;;11.05;7.90;;;16.40;99.90;;;;;;5131434;27;20770;-33
2021/01/09 03:24:38;;;;;;;12.30;7.95;;;16.40;99.90;;;;;;5128960;27;20024;-34
2021/01/09 03:27:04;;;;;;;8.85;6.90;;;16.40;99.90;;;;;;5130338;27;20034;-34
2021/01/09 03:29:30;;;;;;;12.68;7.28;;;16.40;99.90;;;;;;5132396;27;20027;-34
2021/01/09 03:31:55;;;;;;;9.00;6.20;;;16.40;99.90;;;;;;5132619;27;20120;-34
2021/01/09 03:34:21;;;;;;;7.55;5.85;;;16.40;99.90;;;;;;5132453;27;20019;-34
2021/01/09 03:36:47;;;;;;;7.65;6.20;;;16.40;99.90;;;;;;5129346;27;20094;-34
2021/01/09 03:39:13;;;;;;;7.45;5.80;;;16.40;99.90;;;;;;5131614;27;20015;-34
2021/01/09 03:41:38;;;;;;;9.93;5.90;;;16.40;99.90;;;;;;5126045;27;20023;-35
2021/01/09 03:44:04;;;;;;;6.95;5.68;;;16.40;99.90;;;;;;5126334;27;20031;-33
2021/01/09 03:46:30;;;;;;;9.75;5.78;;;16.30;99.90;;;;;;5125413;27;20031;-33
2021/01/09 03:48:56;;;;;;;8.80;6.43;;;16.30;99.90;;;;;;5108387;28;20038;-34
2021/01/09 03:51:22;;;;;;;8.27;5.57;;;16.30;99.90;;;;;;5130104;27;20402;-33
2021/01/09 03:53:47;;;;;;;7.25;5.85;;;16.30;99.90;;;;;;5127348;28;20027;-35
2021/01/09 03:56:13;;;;;;;7.68;6.13;;;16.30;99.90;;;;;;5108131;28;20120;-33
2021/01/09 03:58:39;;;;;;;8.90;5.63;;;16.30;99.90;;;;;;5124855;28;20465;-36
2021/01/09 04:01:05;;;;;;;8.38;6.68;;;16.30;99.90;;;;;;5129334;28;20038;-34
2021/01/09 04:03:31;;;;;;;8.63;5.53;;;16.30;99.90;;;;;;5126236;28;20022;-34
2021/01/09 04:05:56;;;;;;;7.05;5.90;;;16.30;99.90;;;;;;5129549;28;20119;-34
2021/01/09 04:08:22;;;;;;;10.38;5.88;;;16.30;99.90;;;;;;5126159;28;20094;-34
2021/01/09 04:10:48;;;;;;;8.52;6.10;;;16.30;99.90;;;;;;5127841;28;20038;-34
2021/01/09 04:13:14;;;;;;;8.40;6.05;;;16.30;99.90;;;;;;5129252;28;20031;-34
2021/01/09 04:15:40;;;;;;;6.13;5.53;;;16.30;99.90;;;;;;5132926;28;20110;-34
2021/01/09 04:18:06;;;;;;;6.60;5.57;;;16.30;99.90;;;;;;5128955;28;20039;-34
2021/01/09 04:20:32;;;;;;;10.02;6.10;;;16.30;99.90;;;;;;5130226;28;20027;-34
2021/01/09 04:22:58;;;;;;;10.60;6.43;;;16.30;99.90;;;;;;5132445;28;20023;-35
2021/01/09 04:25:24;;;;;;;9.25;7.07;;;16.30;99.90;;;;;;5127097;28;20030;-34
2021/01/09 04:27:50;;;;;;;10.95;6.47;;;16.30;99.90;;;;;;5130833;28;20106;-34
2021/01/09 04:30:16;;;;;;;7.75;5.80;;;16.30;99.90;;;;;;5129480;28;20027;-34
2021/01/09 04:32:42;;;;;;;6.95;5.47;;;16.20;99.90;;;;;;5130391;28;20049;-34
2021/01/09 04:35:08;;;;;;;8.25;6.10;;;16.20;99.90;;;;;;5125474;28;20057;-34
2021/01/09 04:37:38;;;;;;;9.05;6.32;;;16.30;99.90;;;;;;5131298;28;20015;-35
2021/01/09 04:40:06;;;;;;;8.48;5.72;;;16.30;99.90;;;;;;5123833;28;20138;-35
2021/01/09 04:42:35;;;;;;;;;;;16.20;99.90;;;;;;5106250;28;20377;-35
2021/01/09 04:45:01;;;;;;;8.07;6.15;;;16.30;99.90;;;;;;5126829;28;19911;-34
2021/01/09 04:47:30;;;;;;;7.13;5.60;;;16.20;99.90;;;;;;5120047;28;20020;-35
2021/01/09 04:49:56;;;;;;;7.40;6.30;;;16.30;99.90;;;;;;5127383;28;20058;-35
2021/01/09 04:52:22;;;;;;;9.95;5.72;;;16.20;99.90;;;;;;5125921;27;20019;-35
2021/01/09 04:54:49;;;;;;;8.88;6.18;;;16.20;99.90;;;;;;5130045;27;20048;-35
2021/01/09 04:57:15;;;;;;;9.13;6.10;;;16.20;99.90;;;;;;5135494;27;20024;-35
2021/01/09 04:59:42;;;;;;;9.00;6.47;;;16.20;99.90;;;;;;5128834;27;20024;-35
2021/01/09 05:02:11;;;;;;;7.30;5.88;;;16.20;99.90;;;;;;5131348;27;20392;-35
2021/01/09 05:04:42;;;;;;;7.45;5.95;;;16.20;99.90;;;;;;5129060;27;20027;-34
2021/01/09 05:07:08;;;;;;;7.45;6.25;;;16.20;99.90;;;;;;5133884;27;20034;-34
2021/01/09 05:09:34;;;;;;;8.85;6.30;;;16.20;99.90;;;;;;5129978;27;20031;-35
2021/01/09 05:12:00;;;;;;;8.25;6.00;;;16.20;99.90;;;;;;5121397;27;20023;-35
2021/01/09 05:14:28;;;;;;;9.52;6.03;;;16.20;99.90;;;;;;5130303;27;20055;-35
2021/01/09 05:16:57;;;;;;;7.68;6.30;;;16.20;99.90;;;;;;5132848;27;20105;-35
2021/01/09 05:19:30;;;;;;;9.80;6.15;;;16.20;99.90;;;;;;5131057;27;20366;-35
2021/01/09 05:21:57;;;;;;;7.85;5.22;;;16.20;99.90;;;;;;5126499;27;20049;-35
2021/01/09 05:24:24;;;;;;;9.73;5.78;;;16.20;99.90;;;;;;5128866;27;20034;-35
2021/01/09 05:26:51;;;;;;;8.05;5.28;;;16.20;99.90;;;;;;5132645;27;20049;-34
2021/01/09 05:29:17;;;;;;;8.40;4.78;;;16.20;99.90;;;;;;5132599;27;20024;-35
2021/01/09 05:31:43;;;;;;;13.10;4.78;;;16.20;99.90;;;;;;5131361;27;20038;-35
2021/01/09 05:34:09;;;;;;;6.70;4.47;;;16.20;99.90;;;;;;5132892;27;20015;-35
2021/01/09 05:36:35;;;;;;;5.82;4.15;;;16.10;99.90;;;;;;5128975;27;20057;-35
2021/01/09 05:39:03;;;;;;;9.98;4.82;;;16.10;99.90;;;;;;5129138;27;20076;-35
2021/01/09 05:41:30;;;;;;;5.43;4.05;;;16.10;99.90;;;;;;5126556;27;20027;-35
2021/01/09 05:44:07;;;;;;;4.85;4.22;;;16.10;99.90;;;;;;5131048;27;20035;-35
2021/01/09 05:46:37;;;;;;;7.93;4.68;;;16.10;99.90;;;;;;5132114;27;20023;-35
2021/01/09 05:49:04;;;;;;;6.30;4.22;;;16.10;99.90;;;;;;5122411;27;20390;-35
2021/01/09 05:51:32;;;;;;;5.95;4.95;;;16.10;99.90;;;;;;5125798;27;20412;-35
2021/01/09 05:53:58;;;;;;;7.05;4.40;;;16.10;99.90;;;;;;5134651;27;20462;-35
2021/01/09 05:56:24;;;;;;;5.82;4.43;;;16.10;99.90;;;;;;5128064;27;20030;-35
2021/01/09 05:58:54;;;;;;;7.95;5.38;;;16.10;99.90;;;;;;5130112;27;20041;-35
2021/01/09 06:01:26;;;;;;;4.70;3.80;;;16.10;99.90;;;;;;5126231;27;20019;-35
2021/01/09 06:04:15;;;;;;;6.80;4.55;;;16.10;99.90;;;;;;5126369;27;20047;-34
2021/01/09 06:06:52;;;;;;;6.88;4.13;;;16.10;99.90;;;;;;5131815;27;20473;-34
2021/01/09 06:09:21;;;;;;;6.55;4.53;;;16.10;99.90;;;;;;5127089;27;20027;-34
2021/01/09 06:11:47;;;;;;;5.88;4.53;;;16.10;99.90;;;;;;5119126;27;20055;-35
2021/01/09 06:14:14;;;;;;;5.75;4.30;;;16.10;99.90;;;;;;5128295;27;20027;-34
2021/01/09 06:16:41;;;;;;;5.35;4.20;;;16.10;99.90;;;;;;5127511;27;20601;-35
2021/01/09 06:19:09;;;;;;;5.32;3.80;;;16.10;99.90;;;;;;5131528;27;20031;-35
2021/01/09 06:21:36;;;;;;;5.57;4.75;;;16.10;99.90;;;;;;5121403;27;20043;-34
2021/01/09 06:24:04;;;;;;;7.17;4.27;;;16.10;99.90;;;;;;5132818;27;20130;-35
2021/01/09 06:26:31;;;;;;;5.45;3.70;;;16.10;99.90;;;;;;5132396;27;20401;-35
2021/01/09 06:28:59;;;;;;;5.07;4.05;;;16.10;99.90;;;;;;5110506;27;20062;-35
2021/01/09 06:31:28;;;;;;;;;;;16.00;99.90;;;;;;5123396;27;20040;-35
2021/01/09 06:34:01;;;;;;;6.55;4.97;;;16.00;99.90;;;;;;5131867;27;19918;-35
2021/01/09 06:36:27;;;;;;;5.70;4.85;;;16.10;99.90;;;;;;5122699;27;20024;-35
2021/01/09 06:38:57;;;;;;;5.57;4.05;;;16.00;99.90;;;;;;5125139;27;20488;-35
2021/01/09 06:41:33;;;;;;;5.60;4.10;;;16.10;99.90;;;;;;5124380;27;20073;-35
2021/01/09 06:44:05;;;;;;;6.32;4.13;;;16.00;99.90;;;;;;5121258;27;20110;-35
2021/01/09 06:46:32;;;;;;;6.45;3.83;;;16.00;99.90;;;;;;5122295;27;20135;-35
2021/01/09 06:49:03;;;;;;;6.10;4.13;;;16.00;99.90;;;;;;5122118;27;20034;-35
2021/01/09 06:51:34;;;;;;;5.85;3.85;;;16.00;99.90;;;;;;5122926;27;20384;-34
2021/01/09 06:54:15;;;;;;;4.97;3.90;;;16.00;99.90;;;;;;5133435;27;20023;-35
2021/01/09 06:56:49;;;;;;;6.20;4.22;;;16.00;99.90;;;;;;5126182;27;20040;-35
2021/01/09 06:59:38;;;;;;;6.20;3.92;;;16.00;99.90;;;;;;5127030;27;20042;-34
2021/01/09 07:02:15;;;;;;;5.35;3.90;;;16.00;99.90;;;;;;5130265;27;20047;-35
2021/01/09 07:05:10;;;;;;;5.20;3.78;;;16.00;99.90;;;;;;5133309;27;20038;-35
2021/01/09 07:07:53;;;;;;;8.07;4.50;;;16.00;99.90;;;;;;5132239;27;20042;-35
2021/01/09 07:10:28;;;;;;;4.65;3.83;;;16.00;99.90;;;;;;5120096;27;20023;-35
2021/01/09 07:12:59;;;;;;;4.95;3.95;;;16.00;99.90;;;;;;5126732;27;20035;-33
2021/01/09 07:15:28;;;;;;;4.78;3.47;;;16.00;99.90;;;;;;5129570;27;20073;-34
2021/01/09 07:17:59;;;;;;;5.05;4.00;;;16.00;99.90;;;;;;5130200;27;20039;-34
2021/01/09 07:20:42;;;;;;;4.07;3.40;;;16.00;99.90;;;;;;5129861;27;20114;-33
2021/01/09 07:23:12;;;;;;;3.95;3.28;;;16.10;99.90;;;;;;5133560;27;20035;-34
2021/01/09 07:25:40;;;;;;;5.97;4.05;;;16.10;99.90;;;;;;5127395;27;20023;-34
2021/01/09 07:28:10;;;;;;;;;;;16.10;99.90;;;;;;5108948;27;20057;-34
2021/01/09 07:30:37;;;;;;;5.68;3.40;;;16.20;99.90;;;;;;5125787;27;20402;-34
2021/01/09 07:33:06;;;;;;;4.10;3.35;;;16.20;99.90;;;;;;5126523;27;20027;-33
2021/01/09 07:35:32;;;;;;;7.20;3.60;;;16.20;99.90;;;;;;5126573;27;20015;-34
2021/01/09 07:38:04;;;;;;;4.10;2.97;;;16.20;99.90;;;;;;5130273;27;20019;-34
2021/01/09 07:41:05;;;;;;;3.92;3.00;;;16.10;99.90;;;;;;5123218;27;20150;-34
2021/01/09 07:43:42;;;;;;;4.65;3.25;;;16.10;99.90;;;;;;5125422;27;20028;-34
2021/01/09 07:46:30;;;;;;;5.43;3.53;;;16.20;99.90;;;;;;5128383;27;20023;-34
2021/01/09 07:49:00;;;;;;;16.00;13.15;;;16.20;99.90;;;;;;5125187;27;20129;-34
2021/01/09 07:51:52;;;;;;;12.68;9.80;;;16.10;99.90;;;;;;5127921;27;20031;-37
2021/01/09 07:54:29;;;;;;;10.55;8.82;;;16.10;99.90;;;;;;5127352;28;20027;-37
2021/01/09 07:56:55;;;;;;;11.18;9.25;;;16.20;99.90;;;;;;5131121;28;20495;-37
2021/01/09 07:59:21;;;;;;;10.38;8.32;;;16.20;99.90;;;;;;5121515;28;20027;-37
2021/01/09 08:01:47;;;;;;;11.13;8.75;;;16.20;99.90;;;;;;5125542;28;20035;-37
2021/01/09 08:04:13;;;;;;;11.38;8.75;;;16.20;99.90;;;;;;5130263;28;20115;-37
2021/01/09 08:06:40;;;;;;;10.45;8.48;;;16.20;99.90;;;;;;5129654;28;20030;-37
2021/01/09 08:09:07;;;;;;;9.60;7.45;;;16.30;99.90;;;;;;5126160;28;20034;-38
2021/01/09 08:11:41;;;;;;;11.00;8.48;;;16.30;99.90;;;;;;5128974;28;20062;-38
2021/01/09 08:14:07;;;;;;;9.30;7.45;;;16.30;99.90;;;;;;5106017;28;20070;-38
2021/01/09 08:16:33;;;;;;;10.25;7.53;;;16.40;99.90;;;;;;5127451;28;20126;-37
2021/01/09 08:19:28;;;;;;;22.55;17.65;;;16.50;99.90;;;;;;5129932;28;20479;-37
2021/01/09 08:21:54;;;;;;;42.75;35.10;;;16.50;99.90;;;;;;5046692;28;20458;-37
2021/01/09 08:24:21;;;;;;;54.80;42.08;;;16.50;99.90;;;;;;5047526;28;20127;-37
2021/01/09 08:26:53;;;;;;;63.00;48.92;;;16.60;99.90;;;;;;5048885;28;20041;-37
2021/01/09 08:29:29;;;;;;;96.22;71.85;;;16.60;99.90;;;;;;5053011;28;20483;-39
2021/01/09 08:31:55;;;;;;;116.65;84.18;;;16.60;99.90;;;;;;5052737;28;20162;-37
2021/01/09 08:34:22;;;;;;;140.45;103.38;;;16.60;99.90;;;;;;5053248;28;20024;-37
2021/01/09 08:36:58;;;;;;;152.57;112.40;;;16.60;99.90;;;;;;5035935;28;20139;-37
2021/01/09 08:39:24;;;;;;;154.38;113.95;;;16.70;99.90;;;;;;5036945;28;20056;-36
2021/01/09 08:41:51;;;;;;;164.40;119.57;;;16.70;99.90;;;;;;5048804;28;20086;-38
2021/01/09 08:44:17;;;;;;;180.30;134.33;;;16.80;99.90;;;;;;5050840;28;20084;-39
2021/01/09 08:46:44;;;;;;;197.00;146.52;;;16.80;99.90;;;;;;5051218;28;20254;-38
2021/01/09 08:49:24;;;;;;;179.90;132.43;;;16.80;99.90;;;;;;5049450;28;20462;-38
2021/01/09 08:52:05;;;;;;;164.48;122.05;;;16.70;99.90;;;;;;5034040;28;20822;-38
2021/01/09 08:54:32;;;;;;;150.10;110.65;;;16.70;99.90;;;;;;5052189;28;20072;-39
2021/01/09 08:57:02;;;;;;;133.38;98.95;;;16.80;99.90;;;;;;5052862;28;20039;-38
2021/01/09 08:59:28;;;;;;;132.27;99.40;;;16.80;99.90;;;;;;5127950;27;20036;-38
2021/01/09 09:02:00;;;;;;;124.88;92.82;;;16.80;99.90;;;;;;5106132;27;20035;-39
2021/01/09 09:04:26;;;;;;;125.20;94.18;;;16.90;99.90;;;;;;5128274;27;20019;-39
2021/01/09 09:07:00;;;;;;;128.75;92.72;;;16.90;99.90;;;;;;5113917;27;20556;-39
2021/01/09 09:09:29;;;;;;;131.52;99.78;;;16.90;99.90;;;;;;5109826;27;20504;-39
2021/01/09 09:11:55;;;;;;;167.60;123.53;;;17.10;99.90;;;;;;5129891;27;20035;-39
2021/01/09 09:14:22;;;;;;;187.13;142.93;;;17.10;99.90;;;;;;5124887;27;20024;-39
2021/01/09 09:16:57;;;;;;;211.48;159.73;;;17.10;99.90;;;;;;5095123;27;20031;-39
2021/01/09 09:19:24;;;;;;;222.05;163.40;;;17.20;99.90;;;;;;5130936;27;20028;-40
2021/01/09 09:21:59;;;;;;;211.73;164.77;;;17.10;99.90;;;;;;5115864;27;20030;-39
2021/01/09 09:24:42;;;;;;;199.73;150.40;;;17.10;99.90;;;;;;5112532;27;20384;-38
2021/01/09 09:27:25;;;;;;;193.88;148.55;;;17.20;99.90;;;;;;5129992;27;20027;-38
2021/01/09 09:30:07;;;;;;;192.95;146.93;;;17.20;99.90;;;;;;5095850;27;20110;-37
2021/01/09 09:32:33;;;;;;;163.23;129.98;;;17.30;99.90;;;;;;5113875;27;20103;-38
2021/01/09 09:35:27;;;;;;;159.77;125.00;;;17.30;99.90;;;;;;5129368;27;20023;-37
2021/01/09 09:37:55;;;;;;;150.15;119.22;;;17.30;99.90;;;;;;5129531;27;20457;-38
2021/01/09 09:40:28;;;;;;;143.82;111.55;;;17.30;99.90;;;;;;5112516;27;20024;-38
2021/01/09 09:42:55;;;;;;;122.40;98.60;;;17.20;99.90;;;;;;5131236;27;20023;-38
2021/01/09 09:45:21;;;;;;;130.43;103.50;;;17.20;99.90;;;;;;5112714;27;20609;-37
2021/01/09 09:47:48;;;;;;;118.85;91.10;;;17.30;99.90;;;;;;5112616;27;20046;-36
2021/01/09 09:50:23;;;;;;;114.32;84.18;;;17.30;99.90;;;;;;5122249;27;20023;-38
2021/01/09 09:53:05;;;;;;;87.47;64.80;;;17.30;99.90;;;;;;5126782;27;20031;-37
2021/01/09 09:55:31;;;;;;;65.72;46.67;;;17.50;99.90;;;;;;5129787;27;20038;-37
2021/01/09 09:58:08;;;;;;;69.38;51.90;;;17.50;99.90;;;;;;5133297;27;20023;-36
2021/01/09 10:00:45;;;;;;;63.33;47.20;;;17.60;99.90;;;;;;5126899;27;20586;-37
2021/01/09 10:03:11;;;;;;;56.30;40.20;;;17.60;99.90;;;;;;5128294;27;20040;-37
2021/01/09 10:05:37;;;;;;;50.13;36.13;;;17.50;99.90;;;;;;5125782;27;20027;-37
2021/01/09 10:08:09;;;;;;;43.70;33.90;;;17.50;99.90;;;;;;5131176;27;20028;-37
2021/01/09 10:10:35;;;;;;;45.63;34.40;;;17.50;99.90;;;;;;5115091;27;20035;-39
2021/01/09 10:13:01;;;;;;;40.10;28.92;;;17.40;99.90;;;;;;5132563;27;20354;-39
2021/01/09 10:15:27;;;;;;;31.13;22.77;;;17.50;99.90;;;;;;5117007;27;20072;-39
2021/01/09 10:17:57;;;;;;;27.63;21.25;;;17.40;99.90;;;;;;5125996;27;20099;-39
2021/01/09 10:20:23;;;;;;;19.73;15.95;;;17.60;99.90;;;;;;5129155;27;20026;-39
2021/01/09 10:22:49;;;;;;;19.85;16.23;;;17.40;99.90;;;;;;5126477;27;20025;-39
2021/01/09 10:25:15;;;;;;;25.38;17.00;;;17.60;99.90;;;;;;5128855;27;20023;-39
2021/01/09 10:27:40;;;;;;;17.15;13.38;;;17.70;99.90;;;;;;5127968;27;20466;-40
2021/01/09 10:30:07;;;;;;;16.10;11.88;;;17.60;99.90;;;;;;5130317;27;20377;-40
2021/01/09 10:32:32;;;;;;;14.32;11.70;;;17.70;99.90;;;;;;5131438;27;20042;-40
2021/01/09 10:34:58;;;;;;;23.10;15.75;;;17.80;99.90;;;;;;5106408;28;20020;-38
2021/01/09 10:37:24;;;;;;;14.70;11.10;;;17.80;99.90;;;;;;5107733;28;20027;-39
2021/01/09 10:39:50;;;;;;;14.13;10.52;;;17.70;99.90;;;;;;5126197;27;20082;-39
2021/01/09 10:42:16;;;;;;;4.50;3.63;;;17.60;99.90;;;;;;5132649;27;20464;-39
2021/01/09 10:44:42;;;;;;;10.07;6.43;;;17.50;99.90;;;;;;5128831;27;20020;-37
2021/01/09 10:47:07;;;;;;;10.90;7.97;;;17.40;99.90;;;;;;5125904;27;20027;-37
2021/01/09 10:49:33;;;;;;;3.83;2.28;;;17.40;99.90;;;;;;5129352;27;20027;-38
2021/01/09 10:52:00;;;;;;;3.38;2.42;;;17.30;99.90;;;;;;5124436;27;20031;-37
2021/01/09 10:54:26;;;;;;;5.95;2.35;;;17.20;99.90;;;;;;5128039;27;20027;-38
2021/01/09 10:56:52;;;;;;;11.27;4.10;;;17.20;99.90;;;;;;5130914;27;20036;-37
2021/01/09 10:59:18;;;;;;;7.18;1.90;;;17.30;99.90;;;;;;5128040;27;20042;-37
2021/01/09 11:01:44;;;;;;;2.08;1.02;;;17.30;99.90;;;;;;5128961;27;20476;-37
2021/01/09 11:04:10;;;;;;;2.40;1.42;;;17.40;99.90;;;;;;5129130;27;20029;-37
2021/01/09 11:06:36;;;;;;;1.88;1.27;;;17.50;99.90;;;;;;5134113;27;20022;-37
2021/01/09 11:09:02;;;;;;;3.42;2.10;;;17.60;99.90;;;;;;5112729;27;20353;-37
2021/01/09 11:11:28;;;;;;;1.70;1.58;;;17.60;99.90;;;;;;5126057;27;20058;-37
2021/01/09 11:13:54;;;;;;;2.92;2.28;;;17.70;99.90;;;;;;5132576;27;20047;-37
2021/01/09 11:16:24;;;;;;;92.20;77.03;;;17.80;99.90;;;;;;5129116;27;20027;-37
2021/01/09 11:18:51;;;;;;;44.25;35.58;;;18.00;99.90;;;;;;5131092;27;20114;-36
2021/01/09 11:21:18;;;;;;;35.75;24.10;;;18.00;99.90;;;;;;5126488;27;20051;-37
2021/01/09 11:23:45;;;;;;;;;;;18.00;99.90;;;;;;5131054;27;20023;-37
2021/01/09 11:26:12;;;;;;;18.35;12.45;;;18.10;99.90;;;;;;5132593;27;19912;-37
2021/01/09 11:28:38;;;;;;;48.43;33.97;;;18.20;99.90;;;;;;5131920;27;20096;-37
2021/01/09 11:31:06;;;;;;;52.13;34.72;;;18.30;99.90;;;;;;5113178;27;20023;-37
2021/01/09 11:33:32;;;;;;;33.45;21.75;;;18.60;99.90;;;;;;5106523;27;20038;-37
2021/01/09 11:35:58;;;;;;;19.50;13.75;;;18.80;99.90;;;;;;5123483;27;20102;-37
2021/01/09 11:38:24;;;;;;;14.10;10.35;;;19.00;99.90;;;;;;5128675;27;20050;-37
2021/01/09 11:40:50;;;;;;;20.35;11.90;;;19.10;99.90;;;;;;5120211;27;20027;-37
2021/01/09 11:43:17;;;;;;;15.05;9.55;;;19.30;99.90;;;;;;5125363;27;20027;-37
2021/01/09 11:45:43;;;;;;;9.63;7.40;;;19.40;99.90;;;;;;5109632;28;20068;-37
2021/01/09 11:48:09;;;;;;;15.30;10.57;;;19.50;99.90;;;;;;5104400;28;20027;-39
2021/01/09 11:50:35;;;;;;;13.27;8.13;;;19.60;99.90;;;;;;5109571;28;20122;-38
2021/01/09 11:53:01;;;;;;;16.65;9.98;;;19.80;99.90;;;;;;5110614;28;20411;-39
2021/01/09 11:55:27;;;;;;;20.65;8.63;;;19.80;99.90;;;;;;5114517;28;20151;-35
2021/01/09 11:57:53;;;;;;;21.25;8.88;;;19.90;99.90;;;;;;5110638;28;20019;-35
2021/01/09 12:00:20;;;;;;;11.52;4.28;;;19.90;99.90;;;;;;5106746;28;20065;-36
2021/01/09 12:02:46;;;;;;;10.70;4.70;;;19.90;99.90;;;;;;5114800;27;20473;-35
2021/01/09 12:05:12;;;;;;;13.52;6.72;;;19.90;99.90;;;;;;5130306;27;20147;-36
2021/01/09 12:07:38;;;;;;;13.25;4.93;;;20.10;99.90;;;;;;5099095;27;20504;-36
2021/01/09 12:10:07;;;;;;;17.98;7.28;;;20.20;99.90;;;;;;5131017;27;20042;-37
2021/01/09 12:12:34;;;;;;;10.10;3.45;;;20.30;99.90;;;;;;5133460;27;20019;-40
2021/01/09 12:15:01;;;;;;;18.40;7.05;;;20.50;99.90;;;;;;5110447;27;20016;-35
2021/01/09 12:17:27;;;;;;;8.73;4.68;;;20.70;99.90;;;;;;5133936;27;20054;-36
2021/01/09 12:19:54;;;;;;;10.98;4.43;;;21.10;99.90;;;;;;5133409;27;20034;-34
2021/01/09 12:22:20;;;;;;;9.70;5.03;;;21.70;99.90;;;;;;5133254;27;20381;-37
2021/01/09 12:24:45;;;;;;;6.00;2.60;;;22.10;99.90;;;;;;5135172;27;20070;-37
2021/01/09 12:27:11;;;;;;;7.13;3.30;;;22.30;99.90;;;;;;5114419;27;20613;-38
2021/01/09 12:29:38;;;;;;;6.60;2.80;;;23.60;99.90;;;;;;5114890;27;20038;-38
2021/01/09 12:32:04;;;;;;;4.63;2.28;;;24.80;99.90;;;;;;5134570;27;20757;-37
2021/01/09 12:34:30;;;;;;;4.00;2.10;;;26.00;99.90;;;;;;5120268;27;20028;-37
2021/01/09 12:36:57;;;;;;;3.15;1.50;;;26.70;99.90;;;;;;5112229;27;20027;-37
2021/01/09 12:39:23;;;;;;;1.70;1.50;;;27.50;99.90;;;;;;5098643;27;20058;-37
2021/01/09 12:41:49;;;;;;;1.30;1.05;;;28.20;99.90;;;;;;5131227;27;20037;-37